createdAt,value
2019-04-20T00:00:29.415Z,0.00
2019-04-20T00:01:32.077Z,0.00
2019-04-20T00:02:27.930Z,0.00
2019-04-20T00:03:32.770Z,0.00
2019-04-20T00:04:32.423Z,0.00
2019-04-20T00:05:27.921Z,0.00
2019-04-20T00:06:27.137Z,0.00
2019-04-20T00:07:30.093Z,0.00
2019-04-20T00:08:31.165Z,0.00
2019-04-20T00:09:31.744Z,0.00
2019-04-20T00:10:30.247Z,0.00
2019-04-20T00:11:36.442Z,0.00
2019-04-20T00:12:36.562Z,0.00
2019-04-20T00:13:36.593Z,0.00
2019-04-20T00:14:32.098Z,0.00
2019-04-20T00:15:28.270Z,0.00
2019-04-20T00:16:27.235Z,0.00
2019-04-20T00:17:26.773Z,0.00
2019-04-20T00:18:34.683Z,0.00
2019-04-20T00:19:35.508Z,0.00
2019-04-20T00:20:32.069Z,0.00
2019-04-20T00:21:28.933Z,0.00
2019-04-20T00:22:36.541Z,0.00
2019-04-20T00:23:33.682Z,0.00
2019-04-20T00:24:33.258Z,0.00
2019-04-20T00:25:44.361Z,0.00
2019-04-20T00:27:01.914Z,0.00
2019-04-20T00:27:52.601Z,0.00
2019-04-20T00:28:47.609Z,0.00
2019-04-20T00:29:45.418Z,0.00
2019-04-20T00:30:49.674Z,0.00
2019-04-20T00:31:42.785Z,0.00
2019-04-20T00:32:43.400Z,0.00
2019-04-20T00:33:39.646Z,0.00
2019-04-20T00:34:33.329Z,0.00
2019-04-20T00:35:27.575Z,0.00
2019-04-20T00:36:27.736Z,0.00
2019-04-20T00:37:27.735Z,0.00
2019-04-20T00:38:33.654Z,0.00
2019-04-20T00:39:27.900Z,0.00
2019-04-20T00:40:26.523Z,0.00
2019-04-20T00:41:27.589Z,0.00
2019-04-20T00:42:35.973Z,0.00
2019-04-20T00:43:32.152Z,0.00
2019-04-20T00:44:31.751Z,0.00
2019-04-20T00:45:30.599Z,0.00
2019-04-20T00:46:32.952Z,0.00
2019-04-20T00:47:37.386Z,0.00
2019-04-20T00:48:38.901Z,0.00
2019-04-20T00:49:41.627Z,0.00
2019-04-20T00:50:44.568Z,0.00
2019-04-20T00:51:48.147Z,0.00
2019-04-20T00:52:39.998Z,0.00
2019-04-20T00:53:34.229Z,0.00
2019-04-20T00:54:28.424Z,0.00
2019-04-20T00:55:27.323Z,0.00
2019-04-20T00:56:26.552Z,0.00
2019-04-20T00:57:37.984Z,0.00
2019-04-20T00:58:34.083Z,0.00
2019-04-20T00:59:43.093Z,0.00
2019-04-20T01:00:41.690Z,0.00
2019-04-20T01:01:49.026Z,0.00
2019-04-20T01:02:40.576Z,0.00
2019-04-20T01:03:43.500Z,0.00
2019-04-20T01:04:47.927Z,0.00
2019-04-20T01:05:46.380Z,0.00
2019-04-20T01:06:41.184Z,0.00
2019-04-20T01:07:35.097Z,0.00
2019-04-20T01:08:27.520Z,0.00
2019-04-20T01:09:26.504Z,0.00
2019-04-20T01:10:28.362Z,0.00
2019-04-20T01:11:33.962Z,0.00
2019-04-20T01:12:30.334Z,0.00
2019-04-20T01:13:28.483Z,0.00
2019-04-20T01:14:31.100Z,0.00
2019-04-20T01:15:38.793Z,0.00
2019-04-20T01:16:35.381Z,0.00
2019-04-20T01:17:27.109Z,0.00
2019-04-20T01:18:26.129Z,0.00
2019-04-20T01:19:26.097Z,0.00
2019-04-20T01:20:27.784Z,0.00
2019-04-20T01:21:28.794Z,0.00
2019-04-20T01:22:29.047Z,0.00
2019-04-20T01:23:35.479Z,0.00
2019-04-20T01:24:31.330Z,0.00
2019-04-20T01:25:32.320Z,0.00
2019-04-20T01:26:27.721Z,0.00
2019-04-20T01:27:39.616Z,0.00
2019-04-20T01:28:42.577Z,0.00
2019-04-20T01:29:37.198Z,0.00
2019-04-20T01:30:33.943Z,0.00
2019-04-20T01:31:35.460Z,0.00
2019-04-20T01:32:34.247Z,0.00
2019-04-20T01:33:40.063Z,0.00
2019-04-20T01:34:42.955Z,0.00
2019-04-20T01:35:47.932Z,0.00
2019-04-20T01:36:47.451Z,0.00
2019-04-20T01:37:39.461Z,0.00
2019-04-20T01:38:43.554Z,0.00
2019-04-20T01:39:35.412Z,0.00
2019-04-20T01:40:27.458Z,0.00
2019-04-20T01:41:26.529Z,0.00
2019-04-20T01:42:25.842Z,0.00
2019-04-20T01:43:26.952Z,0.00
2019-04-20T01:44:31.672Z,0.00
2019-04-20T01:45:31.433Z,0.00
2019-04-20T01:46:29.705Z,0.00
2019-04-20T01:47:32.240Z,0.00
2019-04-20T01:48:30.486Z,0.00
2019-04-20T01:49:30.571Z,0.00
2019-04-20T01:50:30.046Z,0.00
2019-04-20T01:51:32.549Z,0.00
2019-04-20T01:52:39.740Z,0.00
2019-04-20T01:53:44.372Z,0.00
2019-04-20T01:54:50.598Z,0.00
2019-04-20T01:55:42.540Z,0.00
2019-04-20T01:56:40.526Z,0.00
2019-04-20T01:57:37.386Z,0.00
2019-04-20T01:58:47.738Z,0.00
2019-04-20T01:59:34.543Z,0.00
2019-04-20T02:00:32.719Z,0.00
2019-04-20T02:01:31.054Z,0.00
2019-04-20T02:02:28.219Z,0.00
2019-04-20T02:03:31.140Z,0.00
2019-04-20T02:04:32.335Z,0.00
2019-04-20T02:05:31.836Z,0.00
2019-04-20T02:06:28.274Z,0.00
2019-04-20T02:07:34.626Z,0.00
2019-04-20T02:08:29.206Z,0.00
2019-04-20T02:09:28.048Z,0.00
2019-04-20T02:10:34.987Z,0.00
2019-04-20T02:11:34.173Z,0.00
2019-04-20T02:12:32.339Z,0.00
2019-04-20T02:13:36.245Z,0.00
2019-04-20T02:14:35.122Z,0.00
2019-04-20T02:15:32.695Z,0.00
2019-04-20T02:16:35.381Z,0.00
2019-04-20T02:17:36.910Z,0.00
2019-04-20T02:18:36.706Z,0.00
2019-04-20T02:19:43.191Z,0.00
2019-04-20T02:20:44.568Z,0.00
2019-04-20T02:21:43.317Z,0.00
2019-04-20T02:22:44.693Z,0.00
2019-04-20T02:23:37.716Z,0.00
2019-04-20T02:24:27.804Z,0.00
2019-04-20T02:25:25.367Z,0.00
2019-04-20T02:26:26.040Z,0.00
2019-04-20T02:27:33.879Z,0.00
2019-04-20T02:28:55.351Z,0.00
2019-04-20T02:29:58.244Z,0.00
2019-04-20T02:32:10.108Z,0.00
2019-04-20T02:33:08.278Z,0.00
2019-04-20T02:33:58.239Z,0.00
2019-04-20T02:35:03.336Z,0.00
2019-04-20T02:36:04.821Z,0.00
2019-04-20T02:37:14.106Z,0.00
2019-04-20T02:39:59.935Z,0.00
2019-04-20T02:41:03.259Z,0.00
2019-04-20T02:44:11.700Z,0.00
2019-04-20T02:45:20.432Z,0.00
2019-04-20T02:45:53.387Z,0.00
2019-04-20T02:47:14.046Z,0.00
2019-04-20T02:48:10.045Z,0.00
2019-04-20T02:49:00.719Z,0.00
2019-04-20T02:50:14.388Z,0.00
2019-04-20T02:50:59.649Z,0.00
2019-04-20T02:52:06.718Z,0.00
2019-04-20T02:53:05.084Z,0.00
2019-04-20T02:54:16.907Z,0.00
2019-04-20T02:55:05.920Z,0.00
2019-04-20T02:56:04.737Z,0.00
2019-04-20T02:58:01.935Z,0.00
2019-04-20T02:59:15.198Z,0.00
2019-04-20T03:00:05.483Z,0.00
2019-04-20T03:01:02.305Z,0.00
2019-04-20T03:01:45.484Z,0.00
2019-04-20T03:02:40.903Z,0.00
2019-04-20T03:03:35.390Z,0.00
2019-04-20T03:04:37.089Z,0.00
2019-04-20T03:05:37.115Z,0.00
2019-04-20T03:06:36.136Z,0.00
2019-04-20T03:07:41.509Z,0.00
2019-04-20T03:08:47.311Z,0.00
2019-04-20T03:09:46.920Z,0.00
2019-04-20T03:10:54.948Z,0.00
2019-04-20T03:11:53.014Z,0.00
2019-04-20T03:12:42.781Z,0.00
2019-04-20T03:13:53.232Z,0.00
2019-04-20T03:14:40.089Z,0.00
2019-04-20T03:15:48.525Z,0.00
2019-04-20T03:16:45.452Z,0.00
2019-04-20T03:17:46.486Z,0.00
2019-04-20T03:18:44.596Z,0.00
2019-04-20T03:19:41.193Z,0.00
2019-04-20T03:20:46.618Z,0.00
2019-04-20T03:21:52.835Z,0.00
2019-04-20T03:23:17.282Z,0.00
2019-04-20T03:23:50.069Z,0.00
2019-04-20T03:24:48.644Z,0.00
2019-04-20T03:25:48.917Z,0.00
2019-04-20T03:26:43.066Z,0.00
2019-04-20T03:27:42.425Z,0.00
2019-04-20T03:28:45.403Z,0.00
2019-04-20T03:29:46.913Z,0.00
2019-04-20T03:33:05.943Z,0.00
2019-04-20T03:34:13.413Z,0.00
2019-04-20T03:35:52.775Z,0.00
2019-04-20T03:36:57.167Z,0.00
2019-04-20T03:37:50.994Z,0.00
2019-04-20T03:38:45.433Z,0.00
2019-04-20T03:39:41.668Z,0.00
2019-04-20T03:40:40.178Z,0.00
2019-04-20T03:41:33.282Z,0.00
2019-04-20T03:42:26.718Z,0.00
2019-04-20T03:43:24.574Z,0.00
2019-04-20T03:44:28.751Z,0.00
2019-04-20T03:45:28.127Z,4.00
2019-04-20T03:46:35.703Z,4.00
2019-04-20T03:47:35.899Z,4.00
2019-04-20T03:48:43.905Z,0.00
2019-04-20T03:49:52.935Z,4.00
2019-04-20T03:50:46.753Z,4.00
2019-04-20T03:51:53.428Z,4.00
2019-04-20T03:52:43.164Z,8.00
2019-04-20T03:53:43.315Z,8.00
2019-04-20T03:54:39.149Z,8.00
2019-04-20T03:55:44.549Z,8.00
2019-04-20T03:56:46.354Z,12.00
2019-04-20T03:57:45.908Z,16.00
2019-04-20T03:58:45.996Z,20.00
2019-04-20T03:59:47.205Z,20.00
2019-04-20T04:00:42.784Z,24.00
2019-04-20T04:02:08.912Z,28.00
2019-04-20T04:02:54.410Z,36.00
2019-04-20T04:04:47.261Z,48.00
2019-04-20T04:05:41.017Z,56.00
2019-04-20T04:06:34.065Z,64.00
2019-04-20T04:07:32.373Z,76.00
2019-04-20T04:08:32.912Z,84.00
2019-04-20T04:09:35.809Z,96.00
2019-04-20T04:10:44.281Z,112.00
2019-04-20T04:11:39.148Z,128.00
2019-04-20T04:12:30.660Z,148.00
2019-04-20T04:13:25.180Z,168.00
2019-04-20T04:14:24.219Z,188.00
2019-04-20T04:15:25.185Z,212.00
2019-04-20T04:16:32.847Z,236.00
2019-04-20T04:17:31.405Z,264.00
2019-04-20T04:18:31.852Z,292.00
2019-04-20T04:19:30.065Z,320.00
2019-04-20T04:20:33.247Z,352.00
2019-04-20T04:21:43.956Z,388.00
2019-04-20T04:23:40.622Z,456.00
2019-04-20T04:24:35.818Z,496.00
2019-04-20T04:25:40.957Z,536.00
2019-04-20T04:26:38.993Z,580.00
2019-04-20T04:27:40.497Z,624.00
2019-04-20T04:28:40.898Z,668.00
2019-04-20T04:29:47.172Z,716.00
2019-04-20T04:30:39.293Z,760.00
2019-04-20T04:31:45.709Z,812.00
2019-04-20T04:33:17.774Z,864.00
2019-04-20T04:33:59.339Z,912.00
2019-04-20T04:34:47.861Z,972.00
2019-04-20T04:35:39.046Z,1024.00
2019-04-20T04:36:40.444Z,1084.00
2019-04-20T04:37:45.852Z,1140.00
2019-04-20T04:38:51.737Z,1196.00
2019-04-20T04:39:47.169Z,1256.00
2019-04-20T04:40:49.474Z,1316.00
2019-04-20T04:41:39.854Z,1380.00
2019-04-20T04:42:48.865Z,1440.00
2019-04-20T04:43:44.111Z,1504.00
2019-04-20T04:44:37.503Z,1564.00
2019-04-20T04:45:27.251Z,1628.00
2019-04-20T04:46:24.982Z,1692.00
2019-04-20T04:47:24.028Z,1756.00
2019-04-20T04:48:31.283Z,1820.00
2019-04-20T04:49:31.118Z,1884.00
2019-04-20T04:50:27.870Z,1952.00
2019-04-20T04:51:29.477Z,2016.00
2019-04-20T04:52:33.071Z,2080.00
2019-04-20T04:53:36.958Z,2144.00
2019-04-20T04:54:34.676Z,2212.00
2019-04-20T04:55:35.255Z,2280.00
2019-04-20T04:56:26.798Z,2344.00
2019-04-20T04:57:24.277Z,2404.00
2019-04-20T04:58:23.722Z,2472.00
2019-04-20T04:59:23.683Z,2536.00
2019-04-20T05:00:28.229Z,2600.00
2019-04-20T05:01:28.612Z,2660.00
2019-04-20T05:02:29.792Z,2728.00
2019-04-20T05:03:38.804Z,2796.00
2019-04-20T05:04:52.897Z,2856.00
2019-04-20T05:05:41.321Z,2920.00
2019-04-20T05:06:38.335Z,2984.00
2019-04-20T05:07:39.794Z,3048.00
2019-04-20T05:08:32.634Z,3112.00
2019-04-20T05:09:25.541Z,3176.00
2019-04-20T05:10:24.620Z,3244.00
2019-04-20T05:11:23.877Z,3316.00
2019-04-20T05:12:27.254Z,3388.00
2019-04-20T05:13:27.651Z,3464.00
2019-04-20T05:14:39.747Z,3536.00
2019-04-20T05:15:39.023Z,3616.00
2019-04-20T05:16:54.936Z,3688.00
2019-04-20T05:17:43.611Z,3756.00
2019-04-20T05:18:55.461Z,3824.00
2019-04-20T05:19:49.855Z,3888.00
2019-04-20T05:20:47.511Z,3952.00
2019-04-20T05:21:51.370Z,4016.00
2019-04-20T05:22:41.177Z,4080.00
2019-04-20T05:23:37.825Z,4136.00
2019-04-20T05:24:41.657Z,4200.00
2019-04-20T05:25:43.069Z,4260.00
2019-04-20T05:26:42.432Z,4316.00
2019-04-20T05:27:46.596Z,4376.00
2019-04-20T05:28:39.252Z,4432.00
2019-04-20T05:29:29.830Z,4488.00
2019-04-20T05:30:24.593Z,4552.00
2019-04-20T05:31:30.888Z,4608.00
2019-04-20T05:32:35.903Z,4664.00
2019-04-20T05:33:36.781Z,4716.00
2019-04-20T05:34:45.282Z,4772.00
2019-04-20T05:35:44.151Z,4824.00
2019-04-20T05:36:44.651Z,4876.00
2019-04-20T05:37:51.421Z,4924.00
2019-04-20T05:38:47.068Z,4972.00
2019-04-20T05:39:44.819Z,5024.00
2019-04-20T05:40:45.981Z,5072.00
2019-04-20T05:41:42.014Z,5116.00
2019-04-20T05:42:43.895Z,5160.00
2019-04-20T05:43:45.758Z,5196.00
2019-04-20T05:44:46.090Z,5240.00
2019-04-20T05:45:40.615Z,5276.00
2019-04-20T05:46:42.512Z,5296.00
2019-04-20T05:47:43.113Z,5296.00
2019-04-20T05:48:48.795Z,5300.00
2019-04-20T05:49:44.008Z,5312.00
2019-04-20T05:50:46.880Z,5340.00
2019-04-20T05:51:45.114Z,5380.00
2019-04-20T05:52:53.289Z,5420.00
2019-04-20T05:53:45.742Z,5464.00
2019-04-20T05:54:47.598Z,5516.00
2019-04-20T05:55:47.031Z,5568.00
2019-04-20T05:56:45.651Z,5624.00
2019-04-20T05:57:49.050Z,5692.00
2019-04-20T05:58:46.031Z,5756.00
2019-04-20T05:59:51.603Z,5828.00
2019-04-20T06:00:47.913Z,5892.00
2019-04-20T06:01:51.232Z,5964.00
2019-04-20T06:02:46.541Z,6044.00
2019-04-20T06:03:42.645Z,6116.00
2019-04-20T06:05:56.800Z,6272.00
2019-04-20T06:06:45.168Z,6352.00
2019-04-20T06:07:46.156Z,6524.00
2019-04-20T06:09:46.348Z,9832.00
2019-04-20T06:10:45.593Z,11584.00
2019-04-20T06:12:00.856Z,11844.00
2019-04-20T06:12:56.696Z,12072.00
2019-04-20T06:13:40.288Z,12404.00
2019-04-20T06:14:39.519Z,12852.00
2019-04-20T06:15:43.035Z,13040.00
2019-04-20T06:16:52.776Z,13144.00
2019-04-20T06:17:45.612Z,13176.00
2019-04-20T06:18:37.286Z,13628.00
2019-04-20T06:19:42.219Z,13960.00
2019-04-20T06:21:02.388Z,13540.00
2019-04-20T06:21:54.332Z,13500.00
2019-04-20T06:22:50.577Z,14136.00
2019-04-20T06:23:50.867Z,14820.00
2019-04-20T06:24:52.590Z,15168.00
2019-04-20T06:25:59.243Z,15264.00
2019-04-20T06:27:48.579Z,16480.00
2019-04-20T06:28:40.055Z,17088.00
2019-04-20T06:29:45.737Z,16896.00
2019-04-20T06:30:34.731Z,16864.00
2019-04-20T06:31:48.682Z,17600.00
2019-04-20T06:32:50.804Z,17696.00
2019-04-20T06:34:04.020Z,17760.00
2019-04-20T06:34:50.116Z,18240.00
2019-04-20T06:36:02.464Z,18592.00
2019-04-20T06:36:48.630Z,18592.00
2019-04-20T06:37:53.700Z,18720.00
2019-04-20T06:39:49.290Z,19424.00
2019-04-20T06:41:00.608Z,19584.00
2019-04-20T06:42:52.007Z,21408.00
2019-04-20T06:43:47.693Z,21408.00
2019-04-20T06:44:39.744Z,21120.00
2019-04-20T06:45:54.846Z,22144.00
2019-04-20T06:46:54.280Z,22848.00
2019-04-20T06:47:47.062Z,22272.00
2019-04-20T06:48:47.076Z,22048.00
2019-04-20T06:50:03.351Z,22656.00
2019-04-20T06:50:39.056Z,23168.00
2019-04-20T06:51:47.534Z,23264.00
2019-04-20T06:52:37.421Z,22976.00
2019-04-20T06:53:46.929Z,23104.00
2019-04-20T06:54:43.163Z,23520.00
2019-04-20T06:55:54.733Z,24384.00
2019-04-20T06:56:48.116Z,24832.00
2019-04-20T06:57:45.462Z,24512.00
2019-04-20T06:58:53.816Z,24800.00
2019-04-20T07:00:46.570Z,25760.00
2019-04-20T07:01:48.962Z,26624.00
2019-04-20T07:02:44.290Z,27040.00
2019-04-20T07:04:13.854Z,26816.00
2019-04-20T07:04:48.601Z,27840.00
2019-04-20T07:05:48.950Z,28448.00
2019-04-20T07:06:50.658Z,28736.00
2019-04-20T07:07:47.535Z,28032.00
2019-04-20T07:09:52.907Z,29216.00
2019-04-20T07:10:51.924Z,29792.00
2019-04-20T07:11:42.632Z,31488.00
2019-04-20T07:12:43.745Z,31392.00
2019-04-20T07:13:37.405Z,31680.00
2019-04-20T07:14:39.141Z,33376.00
2019-04-20T07:15:40.151Z,34624.00
2019-04-20T07:16:46.469Z,35520.00
2019-04-20T07:18:43.485Z,37024.00
2019-04-20T07:19:40.316Z,37632.00
2019-04-20T07:20:52.604Z,38304.00
2019-04-20T07:22:00.554Z,36544.00
2019-04-20T07:22:46.391Z,36928.00
2019-04-20T07:23:47.728Z,37408.00
2019-04-20T07:24:48.694Z,37376.00
2019-04-20T07:26:06.773Z,36576.00
2019-04-20T07:26:50.214Z,35968.00
2019-04-20T07:27:48.988Z,36096.00
2019-04-20T07:28:51.200Z,37088.00
2019-04-20T07:29:46.367Z,36736.00
2019-04-20T07:30:45.210Z,36000.00
2019-04-20T07:31:43.368Z,35648.00
2019-04-20T07:32:48.424Z,35456.00
2019-04-20T07:33:46.668Z,35328.00
2019-04-20T07:34:48.795Z,35552.00
2019-04-20T07:35:40.119Z,35776.00
2019-04-20T07:36:51.508Z,35392.00
2019-04-20T07:38:46.252Z,35456.00
2019-04-20T07:39:40.320Z,36704.00
2019-04-20T07:40:44.446Z,37056.00
2019-04-20T07:41:47.911Z,38304.00
2019-04-20T07:42:46.763Z,38304.00
2019-04-20T07:43:55.456Z,38336.00
2019-04-20T07:44:48.782Z,37888.00
2019-04-20T07:45:40.191Z,38560.00
2019-04-20T07:46:56.450Z,40160.00
2019-04-20T07:48:43.167Z,39968.00
2019-04-20T07:49:44.387Z,42176.00
2019-04-20T07:50:37.302Z,42208.00
2019-04-20T07:51:28.270Z,43328.00
2019-04-20T07:52:35.189Z,43520.00
2019-04-20T07:53:36.237Z,42656.00
2019-04-20T07:54:50.679Z,43808.00
2019-04-20T07:56:02.421Z,47264.00
2019-04-20T07:56:42.226Z,47488.00
2019-04-20T07:57:39.432Z,46112.00
2019-04-20T07:58:33.881Z,46688.00
2019-04-20T07:59:30.599Z,47648.00
2019-04-20T08:01:52.729Z,49984.00
2019-04-20T08:02:56.221Z,49920.00
2019-04-20T08:03:44.506Z,50144.00
2019-04-20T08:04:42.495Z,50944.00
2019-04-20T08:05:36.354Z,51168.00
2019-04-20T08:06:33.140Z,53184.00
2019-04-20T08:07:36.100Z,52064.00
2019-04-20T08:08:42.204Z,52896.00
2019-04-20T08:09:32.714Z,52736.00
2019-04-20T08:10:54.436Z,52992.00
2019-04-20T08:11:50.087Z,53440.00
2019-04-20T08:12:49.937Z,54368.00
2019-04-20T08:13:46.712Z,53856.00
2019-04-20T08:14:50.612Z,51392.00
2019-04-20T08:18:45.739Z,56032.00
2019-04-20T08:19:40.457Z,56352.00
2019-04-20T08:20:47.936Z,56928.00
2019-04-20T08:21:42.285Z,59488.00
2019-04-20T08:22:41.024Z,58304.00
2019-04-20T08:23:44.465Z,57888.00
2019-04-20T08:24:37.487Z,58464.00
2019-04-20T08:25:31.560Z,58400.00
2019-04-20T08:26:28.983Z,57920.00
2019-04-20T08:27:23.473Z,57568.00
2019-04-20T08:28:33.380Z,57824.00
2019-04-20T08:29:38.178Z,59904.00
2019-04-20T08:30:38.842Z,58048.00
2019-04-20T08:31:35.817Z,59424.00
2019-04-20T08:32:38.863Z,62880.00
2019-04-20T08:33:42.658Z,63520.00
2019-04-20T08:35:02.070Z,64160.00
2019-04-20T08:35:48.117Z,64160.00
2019-04-20T08:36:45.467Z,65056.00
2019-04-20T08:37:59.650Z,64224.00
2019-04-20T08:39:05.811Z,64192.00
2019-04-20T08:39:51.198Z,65984.00
2019-04-20T08:40:43.943Z,66624.00
2019-04-20T08:41:48.790Z,65472.00
2019-04-20T08:42:57.267Z,65408.00
2019-04-20T08:44:56.173Z,66880.00
2019-04-20T08:45:49.488Z,66336.00
2019-04-20T08:46:53.555Z,66208.00
2019-04-20T08:48:43.543Z,67136.00
2019-04-20T08:49:41.494Z,67680.00
2019-04-20T08:50:41.249Z,67648.00
2019-04-20T08:51:49.687Z,69376.00
2019-04-20T08:53:06.508Z,71200.00
2019-04-20T08:53:42.043Z,70816.00
2019-04-20T08:54:40.485Z,69120.00
2019-04-20T08:55:37.460Z,70176.00
2019-04-20T08:56:35.115Z,71520.00
2019-04-20T08:57:22.539Z,70944.00
2019-04-20T08:58:22.348Z,69248.00
2019-04-20T08:59:21.150Z,69664.00
2019-04-20T09:00:29.666Z,72416.00
2019-04-20T09:01:27.160Z,75424.00
2019-04-20T09:02:22.178Z,74720.00
2019-04-20T09:03:27.329Z,71616.00
2019-04-20T09:04:33.827Z,73248.00
2019-04-20T09:05:34.889Z,75616.00
2019-04-20T09:06:38.910Z,75904.00
2019-04-20T09:07:25.132Z,76096.00
2019-04-20T09:08:28.076Z,75776.00
2019-04-20T09:09:49.664Z,74144.00
2019-04-20T09:10:54.908Z,70976.00
2019-04-20T09:11:47.516Z,72320.00
2019-04-20T09:12:42.210Z,75424.00
2019-04-20T09:13:32.075Z,74688.00
2019-04-20T09:14:23.535Z,74560.00
2019-04-20T09:15:21.163Z,76800.00
2019-04-20T09:16:26.959Z,77120.00
2019-04-20T09:17:29.677Z,77216.00
2019-04-20T09:18:29.381Z,77984.00
2019-04-20T09:19:29.916Z,77600.00
2019-04-20T09:20:31.757Z,79040.00
2019-04-20T09:21:34.498Z,79168.00
2019-04-20T09:22:34.092Z,80544.00
2019-04-20T09:23:36.796Z,78912.00
2019-04-20T09:24:49.083Z,78432.00
2019-04-20T09:26:37.595Z,78624.00
2019-04-20T09:27:32.545Z,78624.00
2019-04-20T09:28:31.886Z,80288.00
2019-04-20T09:29:35.830Z,80320.00
2019-04-20T09:30:34.868Z,77696.00
2019-04-20T09:31:35.170Z,78304.00
2019-04-20T09:32:39.549Z,80576.00
2019-04-20T09:33:41.771Z,83584.00
2019-04-20T09:34:42.379Z,85536.00
2019-04-20T09:35:38.699Z,86528.00
2019-04-20T09:36:35.302Z,85664.00
2019-04-20T09:37:44.655Z,85664.00
2019-04-20T09:38:35.050Z,84384.00
2019-04-20T09:39:30.365Z,85664.00
2019-04-20T09:40:40.237Z,86848.00
2019-04-20T09:41:39.524Z,87712.00
2019-04-20T09:42:21.658Z,86272.00
2019-04-20T09:43:21.718Z,84640.00
2019-04-20T09:44:25.714Z,87008.00
2019-04-20T09:45:27.445Z,90752.00
2019-04-20T09:46:22.254Z,87520.00
2019-04-20T09:47:29.492Z,86240.00
2019-04-20T09:48:32.051Z,84288.00
2019-04-20T09:49:35.299Z,90048.00
2019-04-20T09:50:38.712Z,92544.00
2019-04-20T09:51:42.388Z,93248.00
2019-04-20T09:52:48.002Z,93248.00
2019-04-20T09:53:34.971Z,94976.00
2019-04-20T09:54:40.407Z,95552.00
2019-04-20T09:55:31.157Z,94592.00
2019-04-20T09:56:38.344Z,93856.00
2019-04-20T09:57:38.132Z,94016.00
2019-04-20T09:58:33.726Z,93952.00
2019-04-20T09:59:38.247Z,90976.00
2019-04-20T10:00:38.277Z,92608.00
2019-04-20T10:01:31.217Z,93184.00
2019-04-20T10:02:25.932Z,94848.00
2019-04-20T10:03:22.659Z,95936.00
2019-04-20T10:04:21.547Z,97184.00
2019-04-20T10:05:20.410Z,94720.00
2019-04-20T10:06:25.825Z,94016.00
2019-04-20T10:07:24.236Z,93792.00
2019-04-20T10:08:21.781Z,95072.00
2019-04-20T10:09:30.590Z,96064.00
2019-04-20T10:10:31.623Z,97472.00
2019-04-20T10:11:21.464Z,97440.00
2019-04-20T10:12:21.738Z,96480.00
2019-04-20T10:13:21.470Z,95840.00
2019-04-20T10:14:20.393Z,95776.00
2019-04-20T10:15:23.404Z,99968.00
2019-04-20T10:16:21.878Z,100160.00
2019-04-20T10:17:20.357Z,98720.00
2019-04-20T10:18:21.780Z,97888.00
2019-04-20T10:19:24.889Z,98208.00
2019-04-20T10:20:29.240Z,101856.00
2019-04-20T10:21:21.259Z,104000.00
2019-04-20T10:22:20.472Z,100320.00
2019-04-20T10:23:20.728Z,97440.00
2019-04-20T10:24:20.895Z,95808.00
2019-04-20T10:25:20.557Z,99456.00
2019-04-20T10:26:20.594Z,101984.00
2019-04-20T10:27:20.942Z,102624.00
2019-04-20T10:28:21.429Z,101504.00
2019-04-20T10:29:21.547Z,102944.00
2019-04-20T10:30:20.732Z,100608.00
2019-04-20T10:31:20.307Z,104032.00
2019-04-20T10:32:21.501Z,102144.00
2019-04-20T10:33:21.708Z,101344.00
2019-04-20T10:34:22.811Z,103072.00
2019-04-20T10:35:21.062Z,104480.00
2019-04-20T10:36:21.461Z,105952.00
2019-04-20T10:37:20.081Z,101856.00
2019-04-20T10:38:21.382Z,101248.00
2019-04-20T10:39:20.408Z,103072.00
2019-04-20T10:40:35.800Z,103296.00
2019-04-20T10:41:34.146Z,106048.00
2019-04-20T10:42:21.082Z,106400.00
2019-04-20T10:43:20.034Z,105408.00
2019-04-20T10:44:20.928Z,108288.00
2019-04-20T10:45:21.167Z,107776.00
2019-04-20T10:46:20.741Z,106080.00
2019-04-20T10:47:21.086Z,104192.00
2019-04-20T10:48:21.349Z,99616.00
2019-04-20T10:49:19.966Z,104000.00
2019-04-20T10:50:20.921Z,104032.00
2019-04-20T10:51:19.996Z,105024.00
2019-04-20T10:52:20.088Z,102592.00
2019-04-20T10:53:19.925Z,104896.00
2019-04-20T10:54:20.467Z,100544.00
2019-04-20T10:55:20.733Z,105184.00
2019-04-20T10:56:21.244Z,104576.00
2019-04-20T10:57:19.887Z,103360.00
2019-04-20T10:58:19.900Z,105696.00
2019-04-20T10:59:19.869Z,106272.00
2019-04-20T11:00:19.882Z,107552.00
2019-04-20T11:01:20.018Z,105856.00
2019-04-20T11:02:19.844Z,106720.00
2019-04-20T11:03:19.900Z,107072.00
2019-04-20T11:04:20.877Z,106336.00
2019-04-20T11:05:20.382Z,109120.00
2019-04-20T11:06:20.576Z,107296.00
2019-04-20T11:07:20.772Z,105600.00
2019-04-20T11:08:20.387Z,105120.00
2019-04-20T11:09:20.714Z,104544.00
2019-04-20T11:10:25.254Z,106592.00
2019-04-20T11:11:26.489Z,107040.00
2019-04-20T11:12:22.060Z,104896.00
2019-04-20T11:13:19.743Z,103680.00
2019-04-20T11:14:26.383Z,104192.00
2019-04-20T11:15:21.013Z,103008.00
2019-04-20T11:16:20.218Z,102784.00
2019-04-20T11:17:20.419Z,102080.00
2019-04-20T11:18:19.771Z,103840.00
2019-04-20T11:19:21.129Z,100544.00
2019-04-20T11:20:19.666Z,103232.00
2019-04-20T11:21:19.711Z,102688.00
2019-04-20T11:22:20.052Z,101216.00
2019-04-20T11:23:20.331Z,102144.00
2019-04-20T11:24:20.471Z,106016.00
2019-04-20T11:25:19.930Z,103680.00
2019-04-20T11:26:20.253Z,105152.00
2019-04-20T11:27:20.392Z,106208.00
2019-04-20T11:28:19.881Z,107168.00
2019-04-20T11:29:20.070Z,105728.00
2019-04-20T11:30:20.405Z,104704.00
2019-04-20T11:31:20.045Z,101408.00
2019-04-20T11:32:20.182Z,96288.00
2019-04-20T11:33:20.372Z,95392.00
2019-04-20T11:34:23.483Z,96832.00
2019-04-20T11:35:28.022Z,99136.00
2019-04-20T11:36:21.216Z,104800.00
2019-04-20T11:37:19.550Z,104064.00
2019-04-20T11:38:19.714Z,104256.00
2019-04-20T11:39:20.832Z,104320.00
2019-04-20T11:40:19.453Z,104640.00
2019-04-20T11:41:25.654Z,104704.00
2019-04-20T11:42:21.743Z,100032.00
2019-04-20T11:43:19.832Z,99392.00
2019-04-20T11:44:20.041Z,100416.00
2019-04-20T11:45:20.533Z,100224.00
2019-04-20T11:46:20.574Z,105376.00
2019-04-20T11:47:19.389Z,104480.00
2019-04-20T11:48:19.366Z,104448.00
2019-04-20T11:49:19.491Z,104096.00
2019-04-20T11:50:19.861Z,106688.00
2019-04-20T11:51:19.339Z,105696.00
2019-04-20T11:52:21.386Z,106208.00
2019-04-20T11:53:19.439Z,104640.00
2019-04-20T11:54:19.313Z,101888.00
2019-04-20T11:55:20.160Z,95296.00
2019-04-20T11:56:25.761Z,92384.00
2019-04-20T11:57:21.330Z,89280.00
2019-04-20T11:58:19.726Z,94368.00
2019-04-20T11:59:19.249Z,101728.00
2019-04-20T12:00:22.070Z,105312.00
2019-04-20T12:01:22.542Z,102752.00
2019-04-20T12:02:27.886Z,102464.00
2019-04-20T12:03:27.959Z,99712.00
2019-04-20T12:04:34.069Z,98880.00
2019-04-20T12:05:30.461Z,101472.00
2019-04-20T12:06:21.137Z,102368.00
2019-04-20T12:07:19.281Z,104672.00
2019-04-20T12:08:19.163Z,102624.00
2019-04-20T12:09:19.213Z,99424.00
2019-04-20T12:10:22.382Z,93056.00
2019-04-20T12:11:30.386Z,95552.00
2019-04-20T12:12:30.081Z,94112.00
2019-04-20T12:13:20.550Z,96000.00
2019-04-20T12:14:19.155Z,94496.00
2019-04-20T12:15:19.093Z,91616.00
2019-04-20T12:16:19.395Z,93344.00
2019-04-20T12:17:19.655Z,95616.00
2019-04-20T12:18:19.810Z,98880.00
2019-04-20T12:19:19.058Z,98848.00
2019-04-20T12:20:19.037Z,101248.00
2019-04-20T12:21:19.037Z,103936.00
2019-04-20T12:22:19.047Z,102304.00
2019-04-20T12:23:20.124Z,101664.00
2019-04-20T12:24:20.388Z,100192.00
2019-04-20T12:25:20.385Z,102528.00
2019-04-20T12:26:18.999Z,103680.00
2019-04-20T12:27:18.976Z,106048.00
2019-04-20T12:28:19.860Z,104160.00
2019-04-20T12:29:19.574Z,103296.00
2019-04-20T12:30:19.614Z,102240.00
2019-04-20T12:31:22.783Z,102816.00
2019-04-20T12:32:19.934Z,103136.00
2019-04-20T12:33:18.914Z,102784.00
2019-04-20T12:34:20.164Z,103168.00
2019-04-20T12:35:20.056Z,103584.00
2019-04-20T12:36:18.953Z,102976.00
2019-04-20T12:37:18.873Z,101504.00
2019-04-20T12:38:19.161Z,102848.00
2019-04-20T12:39:19.286Z,100160.00
2019-04-20T12:40:19.897Z,101952.00